createdAt,value
2019-05-02T00:00:16.729Z,6.13
2019-05-02T00:01:16.756Z,6.06
2019-05-02T00:02:17.018Z,6.09
2019-05-02T00:03:16.275Z,6.10
2019-05-02T00:04:19.916Z,6.08
2019-05-02T00:05:16.552Z,6.09
2019-05-02T00:06:16.813Z,6.09
2019-05-02T00:07:19.874Z,6.13
2019-05-02T00:08:17.088Z,6.09
2019-05-02T00:09:16.351Z,6.09
2019-05-02T00:10:19.850Z,6.05
2019-05-02T00:11:16.674Z,6.05
2019-05-02T00:12:16.939Z,6.00
2019-05-02T00:13:16.212Z,6.08
2019-05-02T00:14:16.482Z,6.05
2019-05-02T00:15:16.757Z,6.03
2019-05-02T00:16:17.028Z,6.05
2019-05-02T00:17:20.139Z,6.02
2019-05-02T00:18:17.165Z,6.03
2019-05-02T00:19:16.432Z,5.99
2019-05-02T00:20:21.002Z,5.96
2019-05-02T00:21:16.750Z,5.92
2019-05-02T00:22:18.427Z,5.92
2019-05-02T00:23:16.790Z,5.93
2019-05-02T00:24:17.052Z,5.88
2019-05-02T00:25:17.184Z,5.86
2019-05-02T00:26:16.639Z,5.85
2019-05-02T00:27:16.908Z,5.82
2019-05-02T00:28:17.175Z,5.81
2019-05-02T00:29:18.862Z,5.86
2019-05-02T00:30:16.942Z,5.85
2019-05-02T00:31:16.977Z,5.81
2019-05-02T00:32:18.210Z,5.79
2019-05-02T00:33:16.727Z,5.79
2019-05-02T00:34:17.009Z,5.77
2019-05-02T00:35:16.278Z,5.75
2019-05-02T00:36:16.550Z,5.74
2019-05-02T00:37:18.745Z,5.70
2019-05-02T00:38:17.056Z,5.71
2019-05-02T00:39:16.312Z,5.70
2019-05-02T00:40:20.039Z,5.72
2019-05-02T00:41:16.651Z,5.74
2019-05-02T00:42:17.548Z,5.70
2019-05-02T00:43:16.636Z,5.68
2019-05-02T00:44:16.904Z,5.72
2019-05-02T00:45:18.591Z,5.72
2019-05-02T00:46:17.174Z,5.65
2019-05-02T00:47:16.438Z,5.70
2019-05-02T00:48:19.189Z,5.68
2019-05-02T00:49:16.303Z,5.68
2019-05-02T00:50:16.572Z,5.62
2019-05-02T00:51:16.637Z,5.57
2019-05-02T00:52:16.903Z,5.51
2019-05-02T00:53:17.163Z,5.50
2019-05-02T00:54:19.043Z,5.45
2019-05-02T00:55:16.388Z,5.40
2019-05-02T00:56:16.643Z,5.35
2019-05-02T00:57:19.864Z,5.37
2019-05-02T00:58:17.048Z,5.33
2019-05-02T00:59:16.334Z,5.31
2019-05-02T01:00:18.233Z,5.28
2019-05-02T01:01:16.651Z,5.28
2019-05-02T01:02:16.915Z,5.27
2019-05-02T01:03:17.926Z,5.26
2019-05-02T01:04:16.276Z,5.27
2019-05-02T01:05:16.561Z,5.26
2019-05-02T01:06:16.829Z,5.20
2019-05-02T01:07:20.218Z,5.19
2019-05-02T01:08:16.671Z,5.13
2019-05-02T01:09:16.950Z,5.10
2019-05-02T01:10:17.191Z,5.03
2019-05-02T01:11:16.275Z,5.05
2019-05-02T01:12:26.046Z,4.95
2019-05-02T01:13:19.109Z,4.92
2019-05-02T01:14:16.685Z,4.93
2019-05-02T01:15:16.986Z,4.92
2019-05-02T01:16:19.037Z,4.92
2019-05-02T01:17:16.645Z,4.89
2019-05-02T01:18:16.920Z,4.93
2019-05-02T01:19:17.287Z,4.95
2019-05-02T01:20:16.586Z,4.92
2019-05-02T01:21:16.640Z,4.93
2019-05-02T01:22:17.263Z,4.93
2019-05-02T01:23:16.600Z,4.92
2019-05-02T01:24:16.872Z,4.92
2019-05-02T01:25:17.310Z,4.89
2019-05-02T01:26:16.603Z,4.89
2019-05-02T01:27:16.862Z,4.88
2019-05-02T01:28:17.754Z,4.89
2019-05-02T01:29:17.161Z,4.91
2019-05-02T01:30:16.446Z,4.92
2019-05-02T01:31:18.278Z,4.91
2019-05-02T01:32:16.443Z,4.89
2019-05-02T01:33:16.707Z,4.91
2019-05-02T01:34:17.935Z,4.91
2019-05-02T01:35:16.610Z,4.91
2019-05-02T01:36:16.870Z,4.92
2019-05-02T01:37:20.578Z,4.91
2019-05-02T01:38:16.212Z,4.91
2019-05-02T01:39:16.477Z,4.89
2019-05-02T01:40:17.671Z,4.86
2019-05-02T01:41:16.794Z,4.88
2019-05-02T01:42:17.057Z,4.79
2019-05-02T01:43:19.763Z,4.79
2019-05-02T01:44:16.313Z,4.78
2019-05-02T01:45:16.586Z,4.75
2019-05-02T01:46:21.736Z,4.74
2019-05-02T01:47:16.286Z,4.79
2019-05-02T01:48:16.551Z,4.76
2019-05-02T01:49:21.340Z,4.76
2019-05-02T01:50:16.368Z,4.76
2019-05-02T01:51:16.422Z,4.72
2019-05-02T01:52:18.834Z,4.72
2019-05-02T01:53:17.069Z,4.75
2019-05-02T01:54:16.359Z,4.72
2019-05-02T01:55:16.912Z,4.72
2019-05-02T01:56:16.341Z,4.71
2019-05-02T01:57:16.596Z,4.71
2019-05-02T01:58:20.691Z,4.71
2019-05-02T01:59:17.033Z,4.68
2019-05-02T02:00:16.322Z,4.63
2019-05-02T02:01:21.280Z,4.64
2019-05-02T02:02:16.519Z,4.58
2019-05-02T02:03:16.790Z,4.57
2019-05-02T02:04:20.913Z,4.55
2019-05-02T02:05:16.541Z,4.57
2019-05-02T02:06:16.804Z,4.53
2019-05-02T02:07:19.908Z,4.50
2019-05-02T02:08:16.502Z,4.51
2019-05-02T02:09:16.799Z,4.53
2019-05-02T02:10:19.717Z,4.54
2019-05-02T02:11:17.112Z,4.53
2019-05-02T02:12:16.376Z,4.51
2019-05-02T02:13:16.640Z,4.50
2019-05-02T02:14:18.670Z,4.50
2019-05-02T02:15:16.289Z,4.47
2019-05-02T02:16:16.564Z,4.41
2019-05-02T02:17:17.316Z,4.34
2019-05-02T02:18:16.669Z,4.31
2019-05-02T02:19:16.923Z,4.33
2019-05-02T02:20:17.203Z,4.31
2019-05-02T02:21:19.957Z,4.30
2019-05-02T02:22:16.217Z,4.33
2019-05-02T02:23:16.477Z,4.34
2019-05-02T02:24:21.040Z,4.33
2019-05-02T02:25:16.663Z,4.33
2019-05-02T02:26:16.938Z,4.34
2019-05-02T02:27:19.836Z,4.31
2019-05-02T02:28:16.926Z,4.26
2019-05-02T02:29:17.195Z,4.23
2019-05-02T02:30:17.479Z,4.23
2019-05-02T02:31:16.531Z,4.20
2019-05-02T02:32:19.901Z,4.17
2019-05-02T02:33:16.233Z,4.17
2019-05-02T02:34:21.119Z,4.10
2019-05-02T02:35:17.169Z,4.05
2019-05-02T02:36:16.449Z,4.05
2019-05-02T02:37:16.728Z,4.06
2019-05-02T02:38:16.990Z,4.06
2019-05-02T02:39:17.058Z,4.05
2019-05-02T02:40:16.497Z,4.00
2019-05-02T02:41:16.553Z,4.03
2019-05-02T02:42:16.818Z,3.99
2019-05-02T02:43:33.270Z,4.00
2019-05-02T02:44:16.792Z,4.02
2019-05-02T02:45:18.505Z,4.02
2019-05-02T02:46:16.707Z,4.05
2019-05-02T02:47:18.699Z,4.09
2019-05-02T02:48:16.400Z,4.13
2019-05-02T02:49:21.224Z,4.17
2019-05-02T02:50:16.766Z,4.19
2019-05-02T02:51:23.422Z,4.24
2019-05-02T02:52:16.547Z,4.26
2019-05-02T02:53:18.055Z,4.23
2019-05-02T02:54:16.861Z,4.23
2019-05-02T02:55:21.893Z,4.19
2019-05-02T02:56:16.841Z,4.20
2019-05-02T02:57:25.541Z,4.23
2019-05-02T02:58:16.722Z,4.23
2019-05-02T02:59:19.262Z,4.21
2019-05-02T03:00:16.307Z,4.24
2019-05-02T03:01:26.864Z,4.20
2019-05-02T03:02:16.664Z,4.16
2019-05-02T03:03:20.616Z,4.17
2019-05-02T03:04:17.198Z,4.19
2019-05-02T03:05:18.467Z,4.20
2019-05-02T03:06:16.794Z,4.08
2019-05-02T03:07:25.299Z,4.06
2019-05-02T03:08:17.004Z,4.03
2019-05-02T03:09:20.016Z,4.05
2019-05-02T03:10:17.171Z,4.02
2019-05-02T03:11:23.207Z,4.02
2019-05-02T03:12:16.776Z,3.99
2019-05-02T03:13:21.605Z,3.96
2019-05-02T03:14:16.427Z,3.96
2019-05-02T03:15:20.750Z,3.96
2019-05-02T03:16:16.650Z,3.93
2019-05-02T03:17:20.248Z,3.92
2019-05-02T03:18:16.635Z,3.90
2019-05-02T03:19:20.995Z,3.88
2019-05-02T03:20:16.562Z,3.86
2019-05-02T03:21:20.144Z,3.86
2019-05-02T03:22:16.839Z,3.86
2019-05-02T03:23:21.645Z,3.86
2019-05-02T03:24:16.423Z,3.88
2019-05-02T03:25:17.983Z,3.93
2019-05-02T03:26:17.306Z,3.92
2019-05-02T03:27:16.694Z,3.98
2019-05-02T03:28:18.393Z,4.06
2019-05-02T03:29:16.274Z,4.02
2019-05-02T03:30:31.262Z,3.96
2019-05-02T03:31:23.364Z,3.93
2019-05-02T03:32:31.298Z,4.00
2019-05-02T03:33:16.534Z,3.99
2019-05-02T03:34:16.819Z,3.96
2019-05-02T03:35:18.577Z,3.93
2019-05-02T03:36:28.465Z,3.89
2019-05-02T03:37:16.497Z,3.88
2019-05-02T03:38:16.787Z,3.89
2019-05-02T03:39:17.507Z,3.88
2019-05-02T03:40:16.977Z,3.85
2019-05-02T03:41:20.507Z,3.85
2019-05-02T03:42:17.106Z,3.89
2019-05-02T03:43:18.879Z,3.85
2019-05-02T03:44:24.484Z,3.85
2019-05-02T03:45:16.548Z,3.90
2019-05-02T03:46:20.382Z,3.89
2019-05-02T03:47:16.969Z,3.83
2019-05-02T03:48:18.062Z,3.83
2019-05-02T03:49:16.683Z,3.83
2019-05-02T03:50:16.984Z,3.81
2019-05-02T03:51:21.129Z,3.79
2019-05-02T03:52:16.397Z,3.75
2019-05-02T03:53:17.489Z,3.72
2019-05-02T03:54:19.937Z,3.72
2019-05-02T03:55:16.625Z,3.62
2019-05-02T03:56:16.886Z,3.58
2019-05-02T03:57:17.168Z,3.60
2019-05-02T03:58:17.174Z,3.57
2019-05-02T03:59:16.808Z,3.57
2019-05-02T04:00:20.673Z,3.60
2019-05-02T04:01:17.140Z,3.60
2019-05-02T04:02:20.255Z,3.58
2019-05-02T04:03:17.152Z,3.58
2019-05-02T04:04:20.459Z,3.60
2019-05-02T04:05:16.923Z,3.64
2019-05-02T04:06:20.797Z,3.60
2019-05-02T04:07:16.831Z,3.64
2019-05-02T04:08:20.599Z,3.71
2019-05-02T04:09:16.915Z,3.74
2019-05-02T04:10:19.621Z,3.78
2019-05-02T04:11:16.225Z,3.78
2019-05-02T04:12:19.170Z,3.77
2019-05-02T04:13:17.182Z,3.77
2019-05-02T04:14:36.039Z,3.74
2019-05-02T04:15:16.945Z,3.69
2019-05-02T04:16:17.311Z,3.74
2019-05-02T04:17:17.037Z,3.72
2019-05-02T04:18:17.915Z,3.68
2019-05-02T04:19:16.309Z,3.69
2019-05-02T04:20:16.592Z,3.71
2019-05-02T04:21:24.110Z,3.75
2019-05-02T04:22:16.505Z,3.77
2019-05-02T04:23:21.117Z,3.72
2019-05-02T04:24:17.026Z,3.72
2019-05-02T04:25:16.323Z,3.55
2019-05-02T04:26:16.604Z,3.55
2019-05-02T04:27:16.875Z,3.53
2019-05-02T04:28:17.181Z,3.55
2019-05-02T04:29:16.457Z,3.55
2019-05-02T04:30:16.733Z,3.57
2019-05-02T04:31:16.790Z,3.58
2019-05-02T04:32:17.067Z,3.62
2019-05-02T04:33:16.338Z,3.65
2019-05-02T04:34:17.835Z,3.64
2019-05-02T04:35:16.531Z,3.67
2019-05-02T04:36:17.800Z,3.75
2019-05-02T04:37:16.400Z,3.79
2019-05-02T04:38:21.109Z,3.89
2019-05-02T04:39:21.150Z,3.99
2019-05-02T04:40:18.145Z,4.08
2019-05-02T04:41:18.604Z,4.13
2019-05-02T04:42:19.348Z,4.13
2019-05-02T04:43:18.344Z,4.09
2019-05-02T04:44:18.894Z,4.14
2019-05-02T04:45:26.153Z,4.14
2019-05-02T04:46:18.752Z,4.12
2019-05-02T04:47:18.291Z,4.08
2019-05-02T04:48:18.368Z,4.09
2019-05-02T04:49:19.838Z,4.03
2019-05-02T04:50:18.423Z,4.08
2019-05-02T04:51:20.054Z,4.10
2019-05-02T04:52:20.893Z,4.14
2019-05-02T04:53:18.845Z,4.19
2019-05-02T04:54:27.611Z,4.19
2019-05-02T04:55:25.557Z,4.19
2019-05-02T04:56:18.450Z,4.21
2019-05-02T04:57:18.626Z,4.21
2019-05-02T04:58:23.844Z,4.26
2019-05-02T04:59:19.716Z,4.26
2019-05-02T05:00:18.389Z,4.30
2019-05-02T05:01:16.374Z,4.34
2019-05-02T05:02:20.794Z,4.37
2019-05-02T05:03:18.196Z,4.36
2019-05-02T05:04:17.758Z,4.38
2019-05-02T05:05:17.114Z,4.40
2019-05-02T05:06:18.800Z,4.40
2019-05-02T05:07:17.734Z,4.40
2019-05-02T05:08:26.010Z,4.43
2019-05-02T05:09:18.011Z,4.48
2019-05-02T05:10:18.491Z,4.54
2019-05-02T05:11:18.961Z,4.53
2019-05-02T05:12:17.600Z,4.55
2019-05-02T05:13:22.650Z,4.57
2019-05-02T05:14:17.941Z,4.60
2019-05-02T05:15:33.223Z,4.64
2019-05-02T05:16:18.450Z,4.69
2019-05-02T05:17:19.685Z,4.79
2019-05-02T05:18:17.625Z,4.82
2019-05-02T05:19:17.797Z,4.89
2019-05-02T05:20:18.287Z,4.88
2019-05-02T05:21:17.795Z,4.92
2019-05-02T05:22:18.398Z,5.00
2019-05-02T05:23:21.274Z,5.02
2019-05-02T05:24:18.105Z,5.06
2019-05-02T05:25:17.520Z,5.09
2019-05-02T05:26:17.463Z,5.16
2019-05-02T05:27:18.746Z,5.24
2019-05-02T05:28:19.643Z,5.26
2019-05-02T05:29:19.175Z,5.35
2019-05-02T05:30:18.605Z,5.38
2019-05-02T05:31:23.781Z,5.45
2019-05-02T05:32:17.865Z,5.54
2019-05-02T05:33:18.247Z,5.58
2019-05-02T05:34:17.326Z,5.54
2019-05-02T05:35:17.665Z,5.65
2019-05-02T05:36:19.589Z,5.68
2019-05-02T05:37:17.221Z,5.75
2019-05-02T05:38:18.170Z,5.79
2019-05-02T05:39:17.564Z,5.79
2019-05-02T05:40:17.628Z,5.93
2019-05-02T05:41:21.339Z,5.98
2019-05-02T05:42:17.798Z,6.02
2019-05-02T05:43:20.239Z,6.14
2019-05-02T05:44:18.023Z,6.14
2019-05-02T05:45:17.359Z,6.26
2019-05-02T05:46:17.790Z,6.29
2019-05-02T05:47:17.495Z,6.37
2019-05-02T05:48:18.364Z,6.51
2019-05-02T05:49:20.312Z,6.67
2019-05-02T05:50:17.700Z,6.79
2019-05-02T05:51:20.484Z,6.84
2019-05-02T05:52:18.058Z,6.91
2019-05-02T05:53:17.031Z,7.06
2019-05-02T05:54:17.807Z,7.13
2019-05-02T05:55:18.116Z,7.23
2019-05-02T05:56:17.984Z,7.38
2019-05-02T05:57:19.227Z,7.38
2019-05-02T05:58:18.692Z,7.54
2019-05-02T05:59:17.557Z,7.64
2019-05-02T06:00:22.580Z,7.62
2019-05-02T06:01:17.631Z,7.74
2019-05-02T06:02:18.322Z,7.80
2019-05-02T06:03:17.865Z,7.92
2019-05-02T06:04:19.228Z,7.98
2019-05-02T06:05:17.436Z,7.99
2019-05-02T06:06:22.304Z,8.02
2019-05-02T06:07:17.574Z,8.08
2019-05-02T06:08:18.319Z,8.23
2019-05-02T06:09:17.188Z,8.27
2019-05-02T06:10:16.461Z,8.34
2019-05-02T06:11:19.931Z,8.43
2019-05-02T06:12:17.041Z,8.51
2019-05-02T06:13:16.308Z,8.58
2019-05-02T06:14:19.869Z,8.67
2019-05-02T06:15:17.182Z,8.75
2019-05-02T06:16:16.648Z,8.96
2019-05-02T06:17:17.012Z,8.88
2019-05-02T06:18:16.289Z,8.96
2019-05-02T06:19:17.775Z,9.03
2019-05-02T06:20:16.380Z,9.20
2019-05-02T06:21:17.121Z,9.26
2019-05-02T06:22:22.620Z,9.37
2019-05-02T06:23:16.819Z,9.44
2019-05-02T06:24:17.149Z,9.44
2019-05-02T06:25:16.575Z,9.45
2019-05-02T06:26:17.176Z,9.47
2019-05-02T06:27:20.680Z,9.43
2019-05-02T06:28:16.703Z,9.50
2019-05-02T06:29:18.429Z,9.51
2019-05-02T06:30:17.042Z,9.50
2019-05-02T06:31:17.295Z,9.58
2019-05-02T06:32:19.120Z,9.65
2019-05-02T06:33:16.957Z,9.64
2019-05-02T06:34:16.223Z,9.71
2019-05-02T06:35:17.036Z,9.82
2019-05-02T06:36:16.564Z,9.84
2019-05-02T06:37:16.835Z,9.89
2019-05-02T06:38:21.509Z,9.89
2019-05-02T06:39:17.176Z,9.85
2019-05-02T06:40:16.455Z,10.01
2019-05-02T06:41:20.891Z,10.06
2019-05-02T06:42:16.539Z,10.02
2019-05-02T06:43:16.800Z,10.10
2019-05-02T06:44:18.335Z,10.16
2019-05-02T06:45:16.428Z,10.26
2019-05-02T06:46:21.488Z,10.33
2019-05-02T06:47:16.858Z,10.48
2019-05-02T06:48:17.589Z,10.65
2019-05-02T06:49:16.325Z,10.82
2019-05-02T06:50:16.601Z,10.78
2019-05-02T06:51:19.459Z,10.67
2019-05-02T06:52:16.396Z,10.74
2019-05-02T06:53:16.661Z,10.63
2019-05-02T06:54:17.934Z,10.92
2019-05-02T06:55:17.004Z,11.12
2019-05-02T06:56:16.267Z,11.42
2019-05-02T06:57:18.983Z,11.33
2019-05-02T06:58:16.235Z,11.17
2019-05-02T06:59:18.343Z,11.22
2019-05-02T07:00:16.544Z,11.37
2019-05-02T07:01:21.009Z,11.26
2019-05-02T07:02:17.076Z,11.25
2019-05-02T07:03:16.350Z,11.27
2019-05-02T07:04:17.263Z,11.46
2019-05-02T07:05:16.389Z,11.57
2019-05-02T07:06:16.789Z,11.64
2019-05-02T07:07:16.334Z,11.64
2019-05-02T07:08:16.728Z,11.78
2019-05-02T07:09:16.238Z,11.89
2019-05-02T07:10:19.934Z,11.89
2019-05-02T07:11:16.632Z,11.75
2019-05-02T07:12:16.889Z,11.65
2019-05-02T07:13:17.159Z,11.68
2019-05-02T07:14:18.505Z,11.84
2019-05-02T07:15:16.663Z,11.81
2019-05-02T07:16:30.231Z,12.06
2019-05-02T07:17:16.278Z,12.16
2019-05-02T07:18:16.530Z,12.03
2019-05-02T07:19:21.454Z,11.92
2019-05-02T07:20:16.364Z,11.77
2019-05-02T07:21:17.292Z,11.95
2019-05-02T07:22:16.424Z,12.06
2019-05-02T07:23:18.288Z,12.29
2019-05-02T07:24:16.724Z,12.37
2019-05-02T07:25:16.987Z,12.49
2019-05-02T07:26:20.931Z,12.35
2019-05-02T07:27:16.421Z,12.35
2019-05-02T07:28:16.686Z,12.40
2019-05-02T07:29:21.449Z,12.47
2019-05-02T07:30:16.358Z,12.64
2019-05-02T07:31:16.382Z,12.63
2019-05-02T07:32:19.142Z,12.49
2019-05-02T07:33:17.056Z,12.63
2019-05-02T07:34:16.318Z,12.72
2019-05-02T07:35:19.117Z,12.77
2019-05-02T07:36:16.609Z,12.77
2019-05-02T07:37:16.864Z,12.70
2019-05-02T07:38:20.102Z,12.70
2019-05-02T07:39:16.945Z,12.78
2019-05-02T07:40:16.749Z,12.95
2019-05-02T07:41:16.268Z,13.08
2019-05-02T07:42:16.533Z,13.09
2019-05-02T07:43:20.913Z,13.09
2019-05-02T07:44:16.612Z,13.36
2019-05-02T07:45:16.885Z,13.33
2019-05-02T07:46:20.908Z,13.60
2019-05-02T07:47:16.499Z,13.65
2019-05-02T07:48:17.672Z,13.54
2019-05-02T07:49:16.342Z,13.47
2019-05-02T07:50:16.653Z,13.47
2019-05-02T07:51:17.162Z,13.50
2019-05-02T07:52:16.550Z,13.40
2019-05-02T07:53:16.816Z,13.29
2019-05-02T07:54:19.215Z,13.37
2019-05-02T07:55:17.076Z,13.54
2019-05-02T07:56:17.521Z,13.64
2019-05-02T07:57:16.289Z,13.78
2019-05-02T07:58:16.553Z,13.76
2019-05-02T07:59:18.576Z,13.78
2019-05-02T08:00:16.590Z,13.85
2019-05-02T08:01:16.635Z,13.85
2019-05-02T08:02:20.154Z,13.97
2019-05-02T08:03:16.561Z,13.97
2019-05-02T08:04:16.836Z,14.02
2019-05-02T08:05:21.461Z,14.13
2019-05-02T08:06:17.038Z,14.25
2019-05-02T08:07:20.675Z,14.20
2019-05-02T08:08:16.696Z,14.25
2019-05-02T08:09:16.968Z,14.11
2019-05-02T08:10:21.485Z,14.09
2019-05-02T08:11:16.283Z,14.26
2019-05-02T08:12:16.577Z,14.30
2019-05-02T08:13:17.408Z,14.47
2019-05-02T08:14:16.672Z,14.39
2019-05-02T08:15:16.941Z,14.52
2019-05-02T08:16:16.201Z,14.63
2019-05-02T08:17:18.953Z,14.64
2019-05-02T08:18:16.618Z,14.71
2019-05-02T08:19:16.893Z,14.73
2019-05-02T08:20:18.980Z,14.74
2019-05-02T08:21:16.217Z,14.85
2019-05-02T08:22:16.485Z,15.23
2019-05-02T08:23:20.356Z,15.09
2019-05-02T08:24:17.087Z,15.19
2019-05-02T08:25:16.343Z,15.18
2019-05-02T08:26:21.548Z,14.78
2019-05-02T08:27:16.751Z,14.77
2019-05-02T08:28:17.884Z,14.91
2019-05-02T08:29:16.252Z,14.88
2019-05-02T08:30:16.518Z,14.94
2019-05-02T08:31:18.841Z,14.87
2019-05-02T08:32:16.265Z,15.11
2019-05-02T08:33:16.534Z,15.18
2019-05-02T08:34:16.808Z,14.92
2019-05-02T08:35:17.086Z,14.85
2019-05-02T08:36:16.347Z,14.95
2019-05-02T08:37:16.615Z,14.70
2019-05-02T08:38:17.727Z,14.76
2019-05-02T08:39:16.294Z,14.84
2019-05-02T08:40:16.569Z,15.15
2019-05-02T08:41:19.870Z,15.28
2019-05-02T08:42:16.743Z,15.32
2019-05-02T08:43:16.997Z,15.38
2019-05-02T08:44:16.952Z,15.35
2019-05-02T08:45:16.458Z,15.38
2019-05-02T08:46:16.819Z,15.47
2019-05-02T08:47:18.868Z,15.67
2019-05-02T08:48:16.757Z,15.74
2019-05-02T08:49:18.749Z,15.64
2019-05-02T08:50:16.381Z,15.67
2019-05-02T08:51:16.397Z,15.57
2019-05-02T08:52:16.665Z,15.57
2019-05-02T08:53:19.577Z,15.57
2019-05-02T08:54:16.282Z,15.42
2019-05-02T08:55:16.563Z,15.52
2019-05-02T08:56:21.252Z,15.54
2019-05-02T08:57:17.097Z,15.45
2019-05-02T08:58:16.369Z,15.52
2019-05-02T08:59:19.643Z,15.66
2019-05-02T09:00:16.558Z,15.63
2019-05-02T09:01:16.626Z,15.82
2019-05-02T09:02:21.017Z,15.88
2019-05-02T09:03:16.491Z,15.78
2019-05-02T09:04:16.767Z,16.09
2019-05-02T09:05:17.040Z,16.28
2019-05-02T09:06:17.038Z,16.08
2019-05-02T09:07:16.708Z,16.00
2019-05-02T09:08:17.066Z,15.81
2019-05-02T09:09:16.330Z,15.94
2019-05-02T09:10:16.617Z,15.67
2019-05-02T09:11:16.644Z,15.88
2019-05-02T09:12:19.782Z,15.97
2019-05-02T09:13:23.459Z,16.00
2019-05-02T09:14:16.615Z,15.92
2019-05-02T09:15:16.890Z,15.95
2019-05-02T09:16:21.456Z,16.02
2019-05-02T09:17:16.770Z,15.82
2019-05-02T09:18:17.087Z,15.59
2019-05-02T09:19:21.175Z,15.60
2019-05-02T09:20:20.532Z,15.76
2019-05-02T09:21:16.739Z,15.73
2019-05-02T09:22:17.010Z,15.90
2019-05-02T09:23:16.268Z,15.95
2019-05-02T09:24:20.747Z,16.15
2019-05-02T09:25:16.999Z,16.05
2019-05-02T09:26:16.265Z,16.17
2019-05-02T09:27:16.524Z,16.09
2019-05-02T09:28:17.031Z,15.97
2019-05-02T09:29:16.246Z,15.78
2019-05-02T09:30:21.426Z,15.84
2019-05-02T09:31:16.558Z,16.11
2019-05-02T09:32:17.041Z,16.17
2019-05-02T09:33:16.273Z,16.32
2019-05-02T09:34:16.998Z,16.21
2019-05-02T09:35:16.266Z,15.92
2019-05-02T09:36:16.568Z,16.24
2019-05-02T09:37:16.832Z,16.27
2019-05-02T09:38:17.099Z,16.17
2019-05-02T09:39:16.357Z,16.25
2019-05-02T09:40:16.889Z,16.29
2019-05-02T09:41:19.296Z,16.22
2019-05-02T09:42:18.727Z,16.28
2019-05-02T09:43:16.441Z,16.46
2019-05-02T09:44:18.654Z,16.43
2019-05-02T09:45:17.099Z,16.12
2019-05-02T09:46:16.657Z,16.08
2019-05-02T09:47:17.025Z,16.21
2019-05-02T09:48:17.110Z,16.36
2019-05-02T09:49:16.930Z,16.42
2019-05-02T09:50:20.441Z,16.31
2019-05-02T09:51:17.297Z,16.08
2019-05-02T09:52:16.903Z,16.25
2019-05-02T09:53:20.489Z,16.24
2019-05-02T09:54:16.886Z,16.40
2019-05-02T09:55:17.157Z,16.52
2019-05-02T09:56:16.454Z,16.66
2019-05-02T09:57:16.726Z,16.63
2019-05-02T09:58:21.148Z,16.22
2019-05-02T09:59:27.498Z,16.31
2019-05-02T10:00:16.698Z,16.46
2019-05-02T10:01:16.729Z,16.62
2019-05-02T10:02:16.998Z,16.60
2019-05-02T10:03:16.272Z,16.80
2019-05-02T10:04:16.546Z,16.71
2019-05-02T10:05:16.849Z,16.83
2019-05-02T10:06:18.119Z,16.87
2019-05-02T10:07:16.658Z,16.86
2019-05-02T10:08:17.071Z,16.80
2019-05-02T10:09:18.603Z,16.73
2019-05-02T10:10:16.251Z,16.94
2019-05-02T10:11:16.847Z,16.63
2019-05-02T10:12:16.747Z,16.76
2019-05-02T10:13:17.004Z,16.90
2019-05-02T10:14:16.269Z,17.00
2019-05-02T10:15:16.565Z,17.03
2019-05-02T10:16:17.886Z,17.59
2019-05-02T10:17:18.444Z,17.35
2019-05-02T10:18:19.522Z,17.38
2019-05-02T10:19:16.757Z,17.62
2019-05-02T10:20:17.051Z,17.66
2019-05-02T10:21:17.322Z,17.66
2019-05-02T10:22:16.681Z,17.50
2019-05-02T10:23:19.383Z,17.56
2019-05-02T10:24:16.748Z,17.70
2019-05-02T10:25:17.184Z,17.66
2019-05-02T10:26:19.969Z,17.70
2019-05-02T10:27:16.645Z,17.81
2019-05-02T10:28:16.910Z,17.60
2019-05-02T10:29:20.836Z,17.10
2019-05-02T10:30:17.018Z,17.08
2019-05-02T10:31:17.002Z,17.18
2019-05-02T10:32:16.720Z,16.90
2019-05-02T10:33:17.126Z,16.94
2019-05-02T10:34:17.552Z,16.90
2019-05-02T10:35:17.172Z,17.26
2019-05-02T10:36:19.507Z,17.38
2019-05-02T10:37:16.557Z,17.48
2019-05-02T10:38:19.331Z,17.54
2019-05-02T10:39:16.903Z,17.33
2019-05-02T10:40:17.348Z,17.35
2019-05-02T10:41:16.234Z,17.19
2019-05-02T10:42:16.494Z,17.29
2019-05-02T10:43:16.765Z,17.32
2019-05-02T10:44:17.034Z,17.62
2019-05-02T10:45:16.791Z,17.63
2019-05-02T10:46:17.194Z,17.96
2019-05-02T10:47:16.457Z,17.89
2019-05-02T10:48:25.636Z,17.81
2019-05-02T10:49:17.133Z,18.03
2019-05-02T10:50:16.424Z,18.05
2019-05-02T10:51:16.481Z,17.86
2019-05-02T10:52:16.745Z,17.83
2019-05-02T10:53:16.756Z,17.73
2019-05-02T10:54:17.028Z,17.77
2019-05-02T10:55:16.288Z,18.01
2019-05-02T10:56:16.546Z,17.91
2019-05-02T10:57:16.814Z,18.12
2019-05-02T10:58:17.092Z,17.86
2019-05-02T10:59:16.359Z,17.73
2019-05-02T11:00:16.650Z,17.80
2019-05-02T11:01:16.673Z,17.74
2019-05-02T11:02:16.935Z,17.86
2019-05-02T11:03:17.193Z,17.97
2019-05-02T11:04:16.457Z,17.70
2019-05-02T11:05:21.495Z,17.81
2019-05-02T11:06:16.652Z,17.80
2019-05-02T11:07:21.572Z,17.77
2019-05-02T11:08:16.405Z,17.39
2019-05-02T11:09:21.455Z,17.70
2019-05-02T11:10:16.293Z,17.62
2019-05-02T11:11:16.328Z,17.77
2019-05-02T11:12:21.105Z,17.77
2019-05-02T11:13:16.540Z,17.70
2019-05-02T11:14:16.794Z,18.15
2019-05-02T11:15:17.057Z,18.41
2019-05-02T11:16:16.325Z,18.12
2019-05-02T11:17:17.895Z,17.66
2019-05-02T11:18:16.491Z,17.46
2019-05-02T11:19:16.777Z,17.91
2019-05-02T11:20:17.049Z,18.04
2019-05-02T11:21:18.780Z,18.27
2019-05-02T11:22:16.213Z,18.24
2019-05-02T11:23:16.486Z,18.48
2019-05-02T11:24:16.739Z,18.62
2019-05-02T11:25:17.016Z,18.70
2019-05-02T11:26:21.370Z,18.79
2019-05-02T11:27:16.548Z,18.67
2019-05-02T11:28:16.813Z,18.22
2019-05-02T11:29:17.064Z,18.08
2019-05-02T11:30:16.693Z,18.04
2019-05-02T11:31:16.394Z,18.00
2019-05-02T11:32:16.661Z,18.11
2019-05-02T11:33:16.930Z,18.27
2019-05-02T11:34:17.208Z,18.07
2019-05-02T11:35:16.489Z,18.05
2019-05-02T11:36:16.750Z,18.07
2019-05-02T11:37:17.034Z,18.01
2019-05-02T11:38:22.031Z,17.96
2019-05-02T11:39:21.386Z,18.08
2019-05-02T11:40:17.127Z,17.94
2019-05-02T11:41:17.201Z,18.05
2019-05-02T11:42:17.589Z,18.15
2019-05-02T11:43:16.414Z,17.90
2019-05-02T11:44:16.683Z,17.86
2019-05-02T11:45:16.945Z,17.70
2019-05-02T11:46:16.237Z,17.84
2019-05-02T11:47:17.171Z,17.84
2019-05-02T11:48:19.662Z,17.87
2019-05-02T11:49:17.158Z,17.84
2019-05-02T11:50:16.441Z,17.91
2019-05-02T11:51:16.577Z,17.70
2019-05-02T11:52:16.875Z,17.69
2019-05-02T11:53:24.934Z,17.68
2019-05-02T11:54:16.805Z,17.90
2019-05-02T11:55:18.901Z,18.07
2019-05-02T11:56:16.948Z,17.70
2019-05-02T11:57:16.213Z,17.93
2019-05-02T11:58:16.499Z,17.89
2019-05-02T11:59:20.656Z,18.04
2019-05-02T12:00:16.396Z,18.24
2019-05-02T12:01:19.260Z,18.14
2019-05-02T12:02:18.745Z,17.98
2019-05-02T12:03:16.363Z,17.72
2019-05-02T12:04:16.936Z,17.62
2019-05-02T12:05:16.375Z,17.84
2019-05-02T12:06:19.604Z,17.93
2019-05-02T12:07:17.166Z,17.96
2019-05-02T12:08:16.446Z,17.86
2019-05-02T12:09:16.714Z,17.65
2019-05-02T12:10:16.991Z,17.76
2019-05-02T12:11:17.796Z,17.69
2019-05-02T12:12:16.210Z,17.83
2019-05-02T12:13:16.472Z,17.74
2019-05-02T12:14:16.751Z,17.84
2019-05-02T12:15:17.008Z,17.79
2019-05-02T12:16:16.282Z,17.69
2019-05-02T12:17:16.543Z,17.80
2019-05-02T12:18:16.811Z,17.68
2019-05-02T12:19:17.063Z,17.72
2019-05-02T12:20:16.340Z,17.70
2019-05-02T12:21:16.374Z,17.68
2019-05-02T12:22:16.999Z,17.66
2019-05-02T12:23:16.433Z,17.77
2019-05-02T12:24:16.701Z,17.87
2019-05-02T12:25:17.063Z,18.03
2019-05-02T12:26:16.325Z,18.14
2019-05-02T12:27:16.585Z,18.12
2019-05-02T12:28:16.847Z,17.93
2019-05-02T12:29:17.123Z,17.91
2019-05-02T12:30:16.410Z,17.84
2019-05-02T12:31:16.718Z,17.90
2019-05-02T12:32:17.065Z,17.86
2019-05-02T12:33:16.364Z,17.83
2019-05-02T12:34:16.638Z,17.89
2019-05-02T12:35:16.900Z,17.62
2019-05-02T12:36:17.186Z,17.68
2019-05-02T12:37:16.446Z,17.70
2019-05-02T12:38:16.706Z,17.74
2019-05-02T12:39:16.969Z,17.73
2019-05-02T12:40:16.252Z,17.72
2019-05-02T12:41:21.802Z,17.81
2019-05-02T12:42:16.592Z,17.81
2019-05-02T12:43:16.458Z,17.80
2019-05-02T12:44:16.727Z,17.70
2019-05-02T12:45:17.001Z,17.69
2019-05-02T12:46:16.263Z,17.80
2019-05-02T12:47:16.534Z,17.93
2019-05-02T12:48:16.805Z,17.98
2019-05-02T12:49:25.165Z,17.96
2019-05-02T12:50:17.212Z,17.98
2019-05-02T12:51:16.254Z,17.77
2019-05-02T12:52:16.523Z,17.76
2019-05-02T12:53:16.787Z,17.66
2019-05-02T12:54:17.049Z,17.57
2019-05-02T12:55:16.307Z,17.49
2019-05-02T12:56:16.576Z,17.52
2019-05-02T12:57:16.844Z,17.43
2019-05-02T12:58:17.107Z,17.43
2019-05-02T12:59:16.396Z,17.43
2019-05-02T13:00:18.462Z,17.53
2019-05-02T13:01:16.716Z,17.60
2019-05-02T13:02:16.993Z,17.74
2019-05-02T13:03:16.277Z,17.80
2019-05-02T13:04:16.545Z,17.66
2019-05-02T13:05:16.820Z,17.83